Rockfield, Wisconsin
Current Conditions -  °F | °C
As of 2:15 AM on Monday 22 Dec 2014 (Local Time) from KMWC Reporting Station
Overcast Overcast  
Wind Chill: 25°   Ceiling: 4200
Heat Index: 34°   Visibility: 7mi
Dew Point: 28°   Wind: 12mph
Humidity: 81%   Direction: 160°SSE
Pressure: 29.99"   Gusts: NA
Location:  43.2326°N, 88.1158°W
Report Text: KMWC 220815Z AUTO 16010KT 7SM OVC042 01/M02 A2999 RMK AO2
Loading
Personal Weather Stations






























Interactive Weather Map New forecast layout! Learn more

10-Day Weather Forecast

Advertisements
Track Severe Weather on mobile